createdAt,value
2019-01-03T00:00:50.452Z,0.83
2019-01-03T00:03:51.131Z,1.13
2019-01-03T00:07:03.477Z,1.10
2019-01-03T00:09:57.853Z,1.40
2019-01-03T00:13:05.390Z,0.90
2019-01-03T00:16:10.349Z,1.10
2019-01-03T00:19:12.022Z,1.00
2019-01-03T00:22:20.083Z,1.03
2019-01-03T00:25:18.389Z,1.00
2019-01-03T00:28:13.590Z,0.97
2019-01-03T00:31:10.163Z,0.80
2019-01-03T00:34:14.135Z,1.00
2019-01-03T00:37:15.561Z,0.80
2019-01-03T00:40:11.527Z,1.33
2019-01-03T00:43:23.192Z,1.00
2019-01-03T00:46:11.987Z,0.90
2019-01-03T00:49:13.727Z,1.00
2019-01-03T00:52:37.919Z,1.10
2019-01-03T00:55:43.105Z,0.70
2019-01-03T00:58:47.971Z,0.90
2019-01-03T01:01:45.489Z,1.10
2019-01-03T01:04:37.231Z,0.70
2019-01-03T01:07:44.458Z,0.70
2019-01-03T01:10:49.748Z,0.90
2019-01-03T01:14:02.537Z,1.17
2019-01-03T01:16:51.371Z,0.90
2019-01-03T01:19:47.711Z,1.00
2019-01-03T01:22:53.039Z,1.13
2019-01-03T01:26:00.651Z,0.57
2019-01-03T01:28:52.017Z,0.93
2019-01-03T01:32:06.156Z,1.00
2019-01-03T01:34:54.665Z,0.97
2019-01-03T01:37:55.960Z,1.10
2019-01-03T01:40:47.190Z,1.00
2019-01-03T01:43:55.292Z,1.00
2019-01-03T01:46:55.814Z,0.90
2019-01-03T01:50:08.155Z,1.10
2019-01-03T01:53:06.943Z,1.00
2019-01-03T01:56:20.983Z,0.90
2019-01-03T01:59:26.679Z,0.80
2019-01-03T02:02:27.686Z,1.30
2019-01-03T02:05:32.999Z,0.80
2019-01-03T02:08:44.261Z,0.70
2019-01-03T02:11:33.051Z,0.80
2019-01-03T02:14:31.430Z,0.63
2019-01-03T02:17:20.286Z,0.83
2019-01-03T02:20:21.822Z,0.70
2019-01-03T02:23:26.778Z,0.70
2019-01-03T02:26:23.223Z,0.90
2019-01-03T02:29:11.971Z,0.40
2019-01-03T02:32:23.770Z,0.70
2019-01-03T02:35:21.860Z,0.70
2019-01-03T02:38:20.531Z,0.77
2019-01-03T02:41:25.970Z,0.70
2019-01-03T02:44:22.199Z,0.73
2019-01-03T02:47:34.127Z,0.93
2019-01-03T02:50:47.345Z,0.63
2019-01-03T02:53:48.539Z,0.53
2019-01-03T02:57:07.276Z,0.70
2019-01-03T03:00:11.953Z,0.90
2019-01-03T03:03:13.159Z,0.70
2019-01-03T03:06:04.663Z,0.80
2019-01-03T03:09:17.414Z,1.10
2019-01-03T03:12:15.114Z,0.60
2019-01-03T03:15:27.588Z,0.67
2019-01-03T03:18:32.367Z,0.70
2019-01-03T03:21:33.984Z,0.50
2019-01-03T03:24:40.990Z,0.97
2019-01-03T03:27:51.254Z,0.60
2019-01-03T03:30:42.926Z,0.53
2019-01-03T03:33:50.418Z,0.70
2019-01-03T03:36:55.860Z,0.60
2019-01-03T03:40:04.691Z,1.00
2019-01-03T03:42:59.594Z,0.77
2019-01-03T03:46:10.327Z,1.00
2019-01-03T03:49:08.706Z,0.50
2019-01-03T03:52:23.705Z,0.40
2019-01-03T03:55:19.317Z,1.10
2019-01-03T03:58:24.618Z,0.70
2019-01-03T04:01:15.776Z,0.70
2019-01-03T04:04:11.334Z,0.60
2019-01-03T04:07:14.880Z,0.97
2019-01-03T04:10:27.022Z,0.63
2019-01-03T04:13:15.969Z,0.60
2019-01-03T04:16:11.011Z,0.50
2019-01-03T04:18:59.890Z,0.70
2019-01-03T04:22:03.595Z,1.00
2019-01-03T04:25:08.978Z,0.80
2019-01-03T04:28:07.668Z,0.70
2019-01-03T04:30:58.966Z,0.90
2019-01-03T04:33:57.021Z,0.67
2019-01-03T04:37:02.002Z,0.57
2019-01-03T04:40:15.734Z,0.70
2019-01-03T04:43:10.784Z,0.70
2019-01-03T04:46:06.861Z,1.00
2019-01-03T04:48:55.683Z,0.50
2019-01-03T04:52:14.047Z,0.87
2019-01-03T04:55:14.577Z,0.50
2019-01-03T04:58:23.738Z,0.50
2019-01-03T05:01:53.845Z,0.90
2019-01-03T05:05:06.605Z,0.73
2019-01-03T05:08:10.519Z,0.77
2019-01-03T05:11:22.360Z,0.67
2019-01-03T05:14:19.855Z,0.53
2019-01-03T05:17:18.173Z,0.80
2019-01-03T05:20:09.274Z,0.80
2019-01-03T05:23:20.168Z,0.70
2019-01-03T05:26:23.993Z,0.67
2019-01-03T05:29:22.449Z,0.43
2019-01-03T05:32:27.683Z,0.63
2019-01-03T05:35:54.735Z,0.70
2019-01-03T05:38:43.663Z,0.70
2019-01-03T05:41:55.542Z,0.60
2019-01-03T05:44:49.931Z,0.70
2019-01-03T05:47:44.809Z,0.83
2019-01-03T05:50:49.900Z,0.93
2019-01-03T05:54:09.303Z,0.50
2019-01-03T05:56:58.087Z,0.70
2019-01-03T06:00:13.462Z,0.77
2019-01-03T06:03:08.745Z,0.60
2019-01-03T06:06:09.853Z,0.53
2019-01-03T06:09:01.554Z,0.60
2019-01-03T06:12:04.367Z,0.80
2019-01-03T06:15:07.799Z,0.47
2019-01-03T06:18:12.240Z,0.77
2019-01-03T06:21:19.007Z,0.50
2019-01-03T06:24:25.936Z,0.53
2019-01-03T06:27:31.269Z,0.30
2019-01-03T06:30:29.057Z,0.60
2019-01-03T06:33:23.228Z,0.43
2019-01-03T06:36:18.450Z,0.63
2019-01-03T06:39:10.016Z,0.40
2019-01-03T06:42:07.637Z,0.60
2019-01-03T06:44:59.494Z,0.43
2019-01-03T06:47:55.365Z,0.30
2019-01-03T06:50:44.317Z,0.43
2019-01-03T06:53:55.297Z,0.33
2019-01-03T06:56:57.193Z,0.60
2019-01-03T07:00:08.951Z,0.30
2019-01-03T07:02:57.621Z,0.30
2019-01-03T07:06:11.671Z,0.30
2019-01-03T07:09:17.064Z,0.10
2019-01-03T07:12:18.053Z,0.20
2019-01-03T07:15:19.061Z,0.10
2019-01-03T07:18:20.958Z,0.20
2019-01-03T07:21:27.411Z,0.10
2019-01-03T07:24:27.755Z,0.50
2019-01-03T07:27:33.163Z,0.30
2019-01-03T07:30:37.668Z,0.53
2019-01-03T07:33:38.316Z,0.23
2019-01-03T07:36:49.883Z,0.30
2019-01-03T07:39:44.235Z,0.30
2019-01-03T07:42:58.018Z,0.27
2019-01-03T07:45:49.754Z,0.43
2019-01-03T07:49:03.822Z,0.23
2019-01-03T07:52:09.507Z,0.30
2019-01-03T07:55:16.859Z,0.37
2019-01-03T07:58:12.903Z,0.20
2019-01-03T08:01:26.238Z,0.40
2019-01-03T08:04:21.521Z,0.50
2019-01-03T08:07:29.331Z,0.60
2019-01-03T08:10:21.030Z,0.40
2019-01-03T08:13:16.087Z,0.40
2019-01-03T08:16:22.872Z,0.50
2019-01-03T08:19:18.892Z,0.33
2019-01-03T08:22:19.499Z,0.57
2019-01-03T08:25:30.368Z,0.30
2019-01-03T08:28:22.218Z,0.60
2019-01-03T08:31:17.754Z,0.50
2019-01-03T08:34:22.256Z,0.27
2019-01-03T08:37:24.310Z,0.40
2019-01-03T08:40:19.077Z,0.40
2019-01-03T08:43:15.124Z,0.30
2019-01-03T08:46:04.008Z,0.57
2019-01-03T08:49:00.603Z,0.40
2019-01-03T08:51:49.202Z,0.30
2019-01-03T08:54:59.699Z,0.50
2019-01-03T08:57:51.305Z,0.50
2019-01-03T09:01:02.144Z,0.33
2019-01-03T09:04:12.766Z,0.13
2019-01-03T09:07:20.652Z,0.40
2019-01-03T09:10:26.732Z,0.30
2019-01-03T09:13:28.571Z,0.30
2019-01-03T09:16:33.753Z,0.20
2019-01-03T09:19:47.577Z,0.37
2019-01-03T09:22:52.636Z,0.47
2019-01-03T09:26:04.476Z,0.23
2019-01-03T09:29:08.687Z,0.57
2019-01-03T09:32:10.075Z,0.30
2019-01-03T09:35:01.272Z,0.40
2019-01-03T09:37:56.798Z,0.30
2019-01-03T09:40:45.400Z,0.40
2019-01-03T09:43:56.700Z,0.47
2019-01-03T09:46:44.001Z,0.30
2019-01-03T09:49:38.508Z,0.50
2019-01-03T09:52:25.986Z,0.20
2019-01-03T09:55:20.793Z,0.40
2019-01-03T09:58:08.290Z,0.30
2019-01-03T10:01:01.851Z,0.40
2019-01-03T10:04:08.446Z,0.60
2019-01-03T10:07:02.226Z,0.43
2019-01-03T10:09:49.814Z,0.30
2019-01-03T10:12:44.800Z,0.50
2019-01-03T10:15:32.022Z,0.50
2019-01-03T10:18:25.744Z,0.30
2019-01-03T10:21:13.254Z,0.40
2019-01-03T10:24:07.686Z,0.70
2019-01-03T10:26:54.837Z,0.50
2019-01-03T10:29:48.638Z,0.60
2019-01-03T10:32:35.818Z,0.20
2019-01-03T10:35:30.814Z,0.30
2019-01-03T10:38:20.947Z,0.30
2019-01-03T10:41:13.939Z,0.63
2019-01-03T10:44:01.088Z,0.20
2019-01-03T10:46:55.196Z,0.30
2019-01-03T10:49:42.351Z,0.30
2019-01-03T10:52:37.088Z,0.37
2019-01-03T10:55:24.108Z,0.40
2019-01-03T10:58:18.698Z,0.40
2019-01-03T11:01:05.935Z,0.30
2019-01-03T11:04:13.815Z,0.30
2019-01-03T11:07:00.899Z,0.23
2019-01-03T11:09:56.566Z,0.30
2019-01-03T11:12:43.569Z,0.17
2019-01-03T11:15:37.961Z,0.30
2019-01-03T11:18:25.210Z,0.43
2019-01-03T11:21:19.078Z,0.20
2019-01-03T11:24:06.132Z,0.10
2019-01-03T11:27:00.886Z,0.20
2019-01-03T11:29:47.979Z,0.00
2019-01-03T11:32:42.342Z,0.20
2019-01-03T11:35:33.054Z,0.20
2019-01-03T11:38:27.557Z,0.20
2019-01-03T11:41:14.792Z,0.37
2019-01-03T11:44:08.593Z,0.40
2019-01-03T11:46:55.887Z,0.30
2019-01-03T11:49:49.725Z,0.30
2019-01-03T11:52:37.311Z,0.40
2019-01-03T11:55:31.442Z,0.20
2019-01-03T11:58:19.008Z,0.27
2019-01-03T12:01:13.431Z,0.10
2019-01-03T12:04:20.120Z,0.20
2019-01-03T12:07:14.042Z,0.30
2019-01-03T12:10:01.416Z,0.10
2019-01-03T12:12:55.274Z,0.43
2019-01-03T12:15:42.180Z,0.13
2019-01-03T12:18:36.032Z,0.27
2019-01-03T12:21:23.457Z,0.10
2019-01-03T12:24:17.844Z,0.10
2019-01-03T12:27:05.321Z,0.30
2019-01-03T12:29:59.762Z,0.33
2019-01-03T12:32:46.845Z,0.17
2019-01-03T12:35:41.291Z,0.10
2019-01-03T12:38:28.477Z,0.20
2019-01-03T12:41:24.451Z,0.00
2019-01-03T12:44:13.552Z,0.27
2019-01-03T12:47:07.509Z,0.33
2019-01-03T12:49:55.770Z,0.10
2019-01-03T12:52:50.261Z,0.33
2019-01-03T12:55:37.649Z,0.10
2019-01-03T12:58:31.943Z,0.20
2019-01-03T13:01:19.229Z,0.10
2019-01-03T13:04:13.016Z,0.33
2019-01-03T13:07:20.007Z,0.20
2019-01-03T13:10:14.771Z,0.20
2019-01-03T13:13:02.047Z,0.20
2019-01-03T13:15:55.487Z,0.10
2019-01-03T13:18:44.418Z,0.23
2019-01-03T13:21:38.800Z,0.20
2019-01-03T13:24:26.103Z,0.20
2019-01-03T13:27:20.128Z,0.20
2019-01-03T13:30:08.443Z,0.40
2019-01-03T13:33:03.072Z,0.23
2019-01-03T13:35:50.239Z,0.33
2019-01-03T13:38:44.617Z,0.20
2019-01-03T13:41:34.075Z,0.30
2019-01-03T13:44:27.802Z,0.30
2019-01-03T13:47:15.307Z,0.20
2019-01-03T13:50:09.811Z,0.30
2019-01-03T13:52:57.153Z,0.30
2019-01-03T13:55:50.831Z,0.20
2019-01-03T13:58:38.507Z,0.10
2019-01-03T14:01:32.541Z,0.30
2019-01-03T14:04:19.833Z,0.40
2019-01-03T14:07:20.598Z,0.30
2019-01-03T14:10:14.387Z,0.30
2019-01-03T14:13:09.073Z,0.30
2019-01-03T14:15:56.297Z,0.40
2019-01-03T14:18:50.258Z,0.40
2019-01-03T14:21:37.686Z,0.37
2019-01-03T14:24:32.732Z,0.30
2019-01-03T14:27:19.799Z,0.30
2019-01-03T14:30:14.871Z,0.50
2019-01-03T14:33:02.227Z,0.30
2019-01-03T14:35:56.228Z,0.20
2019-01-03T14:38:43.775Z,0.30
2019-01-03T14:41:38.000Z,0.23
2019-01-03T14:44:25.114Z,0.27
2019-01-03T14:47:18.958Z,0.43
2019-01-03T14:50:07.926Z,0.37
2019-01-03T14:53:05.195Z,0.23
2019-01-03T14:55:52.247Z,0.20
2019-01-03T14:58:45.843Z,0.27
2019-01-03T15:01:33.145Z,0.50
2019-01-03T15:04:26.836Z,0.23
2019-01-03T15:07:21.432Z,0.10
2019-01-03T15:10:15.099Z,0.20
2019-01-03T15:13:04.052Z,0.30
2019-01-03T15:15:58.141Z,0.30
2019-01-03T15:18:45.046Z,0.20
2019-01-03T15:21:39.699Z,0.30
2019-01-03T15:24:27.234Z,0.10
2019-01-03T15:27:22.698Z,0.10
2019-01-03T15:30:10.520Z,0.30
2019-01-03T15:33:04.782Z,0.40
2019-01-03T15:35:52.055Z,0.10
2019-01-03T15:38:46.418Z,0.30
2019-01-03T15:41:33.718Z,0.30
2019-01-03T15:44:27.745Z,0.40
2019-01-03T15:47:15.310Z,0.10
2019-01-03T15:50:09.127Z,0.40
2019-01-03T15:52:57.634Z,0.40
2019-01-03T15:55:52.140Z,0.40
2019-01-03T15:58:39.632Z,0.43
2019-01-03T16:01:34.256Z,0.13
2019-01-03T16:04:21.286Z,0.40
2019-01-03T16:07:16.088Z,0.20
2019-01-03T16:10:16.044Z,0.40
2019-01-03T16:13:09.633Z,0.20
2019-01-03T16:15:57.010Z,0.20
2019-01-03T16:18:51.515Z,0.13
2019-01-03T16:21:39.012Z,0.30
2019-01-03T16:24:32.916Z,0.30
2019-01-03T16:27:20.575Z,0.30
2019-01-03T16:30:15.138Z,0.30
2019-01-03T16:33:07.289Z,0.40
2019-01-03T16:36:04.044Z,0.30
2019-01-03T16:38:51.145Z,0.77
2019-01-03T16:41:45.695Z,0.37
2019-01-03T16:44:33.003Z,0.33
2019-01-03T16:47:27.493Z,0.77
2019-01-03T16:50:15.380Z,0.20
2019-01-03T16:53:09.526Z,0.90
2019-01-03T16:55:56.560Z,0.40
2019-01-03T16:58:50.372Z,0.43
2019-01-03T17:01:37.913Z,0.40
2019-01-03T17:04:32.176Z,0.40
2019-01-03T17:07:19.447Z,0.57
2019-01-03T17:10:23.349Z,0.40
2019-01-03T17:13:10.558Z,0.37
2019-01-03T17:16:05.042Z,0.40
2019-01-03T17:18:52.529Z,0.50
2019-01-03T17:21:47.218Z,0.70
2019-01-03T17:24:35.979Z,0.47
2019-01-03T17:27:30.185Z,0.50
2019-01-03T17:30:17.356Z,0.50
2019-01-03T17:33:11.751Z,0.37
2019-01-03T17:35:59.201Z,0.50
2019-01-03T17:38:53.502Z,0.43
2019-01-03T17:41:40.823Z,0.60
2019-01-03T17:44:35.036Z,0.40
2019-01-03T17:47:22.197Z,0.47
2019-01-03T17:50:18.111Z,0.40
2019-01-03T17:53:05.200Z,0.30
2019-01-03T17:56:00.034Z,0.40
2019-01-03T17:58:47.245Z,0.30
2019-01-03T18:01:41.405Z,0.40
2019-01-03T18:04:30.600Z,0.43
2019-01-03T18:07:25.186Z,0.60
2019-01-03T18:10:20.209Z,0.30
2019-01-03T18:13:21.747Z,0.53
2019-01-03T18:16:08.934Z,0.40
2019-01-03T18:19:02.919Z,0.50
2019-01-03T18:21:50.252Z,0.50
2019-01-03T18:24:44.696Z,0.40
2019-01-03T18:27:31.957Z,0.30
2019-01-03T18:30:26.369Z,0.50
2019-01-03T18:33:13.394Z,0.50
2019-01-03T18:36:07.272Z,0.67
2019-01-03T18:38:54.440Z,0.60
2019-01-03T18:41:48.918Z,0.57
2019-01-03T18:44:38.426Z,0.60
2019-01-03T18:47:33.161Z,0.60
2019-01-03T18:50:20.529Z,0.73
2019-01-03T18:53:14.183Z,0.57
2019-01-03T18:56:01.763Z,0.60
2019-01-03T18:58:56.471Z,0.63
2019-01-03T19:01:43.792Z,0.47
2019-01-03T19:04:37.863Z,0.80
2019-01-03T19:07:24.950Z,0.33
2019-01-03T19:10:28.331Z,0.80
2019-01-03T19:13:21.749Z,0.50
2019-01-03T19:16:15.931Z,0.50
2019-01-03T19:19:03.015Z,0.87
2019-01-03T19:21:57.295Z,0.77
2019-01-03T19:24:44.465Z,0.33
2019-01-03T19:27:38.201Z,0.50
2019-01-03T19:30:25.391Z,0.50
2019-01-03T19:33:19.532Z,0.67
2019-01-03T19:36:06.981Z,0.60
2019-01-03T19:39:01.733Z,0.70
2019-01-03T19:41:48.922Z,0.50
2019-01-03T19:44:43.237Z,0.67
2019-01-03T19:47:30.287Z,0.93
2019-01-03T19:50:24.811Z,0.50
2019-01-03T19:53:12.260Z,0.70
2019-01-03T19:56:06.620Z,0.70
2019-01-03T19:58:54.086Z,0.50
2019-01-03T20:01:48.781Z,0.70
2019-01-03T20:04:35.903Z,0.83
2019-01-03T20:07:30.478Z,0.40
2019-01-03T20:10:17.670Z,0.53
2019-01-03T20:13:18.508Z,0.70
2019-01-03T20:16:12.894Z,0.83
2019-01-03T20:19:07.526Z,0.83
2019-01-03T20:21:55.984Z,0.73
2019-01-03T20:24:49.774Z,0.90
2019-01-03T20:27:36.862Z,0.60
2019-01-03T20:30:31.129Z,0.77
2019-01-03T20:33:18.296Z,0.73
2019-01-03T20:36:13.505Z,0.77
2019-01-03T20:39:16.990Z,0.90
2019-01-03T20:42:18.266Z,0.60
2019-01-03T20:45:06.963Z,0.80
2019-01-03T20:48:00.989Z,0.60
2019-01-03T20:50:48.402Z,0.70
2019-01-03T20:53:42.562Z,0.70
2019-01-03T20:56:31.413Z,0.67
2019-01-03T20:59:25.617Z,0.93
2019-01-03T21:02:13.000Z,0.87
2019-01-03T21:05:07.119Z,0.70
2019-01-03T21:07:54.360Z,0.47
2019-01-03T21:10:48.687Z,0.80
2019-01-03T21:13:42.625Z,0.90
2019-01-03T21:16:44.054Z,0.97
2019-01-03T21:19:38.145Z,0.70
2019-01-03T21:22:32.748Z,0.70
2019-01-03T21:25:20.015Z,0.80
2019-01-03T21:28:13.940Z,0.77
2019-01-03T21:31:01.124Z,0.70
2019-01-03T21:33:55.348Z,0.83
2019-01-03T21:36:42.886Z,0.80
2019-01-03T21:39:40.253Z,0.80
2019-01-03T21:42:27.313Z,0.90
2019-01-03T21:45:28.684Z,0.90
2019-01-03T21:48:15.571Z,0.93
2019-01-03T21:51:09.696Z,1.10
2019-01-03T21:53:56.904Z,1.00
2019-01-03T21:56:51.150Z,0.57
2019-01-03T21:59:38.454Z,0.83
2019-01-03T22:02:32.475Z,0.90
2019-01-03T22:05:19.956Z,0.73
2019-01-03T22:08:13.642Z,0.63
2019-01-03T22:11:02.647Z,0.57
2019-01-03T22:13:58.098Z,0.70
2019-01-03T22:16:45.236Z,0.80
2019-01-03T22:19:46.695Z,0.80
2019-01-03T22:22:41.070Z,0.80
2019-01-03T22:25:35.244Z,0.67
2019-01-03T22:28:22.602Z,0.70
2019-01-03T22:31:17.190Z,0.80
2019-01-03T22:34:04.744Z,0.87
2019-01-03T22:36:59.336Z,0.90
2019-01-03T22:39:46.541Z,1.20
2019-01-03T22:42:40.293Z,1.10
2019-01-03T22:45:27.416Z,0.73
2019-01-03T22:48:23.240Z,0.80
2019-01-03T22:51:10.804Z,0.70
2019-01-03T22:54:05.587Z,0.97
2019-01-03T22:56:52.817Z,0.60
2019-01-03T22:59:46.776Z,0.80
2019-01-03T23:02:34.122Z,0.80
2019-01-03T23:05:28.824Z,0.70
2019-01-03T23:08:15.968Z,0.90
2019-01-03T23:11:10.480Z,0.70
2019-01-03T23:13:59.404Z,0.70
2019-01-03T23:16:52.852Z,0.83
2019-01-03T23:20:00.515Z,0.80
2019-01-03T23:22:54.904Z,0.80
2019-01-03T23:25:43.672Z,0.77
2019-01-03T23:28:37.866Z,0.73
2019-01-03T23:31:24.958Z,0.87
2019-01-03T23:34:20.846Z,0.80
2019-01-03T23:37:08.134Z,0.80
2019-01-03T23:40:04.130Z,0.97
2019-01-03T23:42:53.153Z,1.00
2019-01-03T23:45:47.556Z,1.03
2019-01-03T23:48:35.157Z,0.60
2019-01-03T23:51:29.749Z,0.60
2019-01-03T23:54:18.961Z,0.60
2019-01-03T23:57:13.198Z,0.60
